Time;durP1;ratioP1;P1;durP2;ratioP2;P2;SDS_P1;SDS_P2;PMS_P1;PMS_P2;Temp;Humidity;BMP_temperature;BMP_pressure;BME280_temperature;BME280_humidity;BME280_pressure;Samples;Min_cycle;Max_cycle;Signal;HPM_P1;HPM_P2
2021/10/07 00:00:45;;;;;;;1.48;1.00;;;;;;;11.30;98.95;101617.50;5051332;28;20103;-66
2021/10/07 00:03:11;;;;;;;1.83;1.17;;;;;;;11.23;99.81;101630.75;5052135;28;20033;-66
2021/10/07 00:05:36;;;;;;;1.27;0.98;;;;;;;11.12;99.58;101616.13;5051128;28;20374;-66
2021/10/07 00:08:03;;;;;;;1.42;0.90;;;;;;;11.15;99.61;101618.16;5052004;28;20025;-65
2021/10/07 00:10:30;;;;;;;1.10;1.00;;;;;;;11.24;99.54;101625.03;5050244;28;20045;-66
2021/10/07 00:12:55;;;;;;;1.33;1.00;;;;;;;11.31;99.18;101629.84;5053166;28;20041;-66
2021/10/07 00:15:21;;;;;;;1.63;0.93;;;;;;;11.35;99.10;101634.25;5052015;28;20044;-66
2021/10/07 00:17:46;;;;;;;2.45;1.30;;;;;;;11.31;98.67;101640.66;5051829;28;20063;-65
2021/10/07 00:20:14;;;;;;;1.35;0.95;;;;;;;11.26;99.03;101640.88;5051396;28;20044;-66
2021/10/07 00:22:41;;;;;;;1.75;1.08;;;;;;;11.11;99.21;101649.63;5051170;28;20463;-66
2021/10/07 00:25:09;;;;;;;1.77;1.05;;;;;;;11.22;98.57;101656.13;5051753;28;20041;-66
2021/10/07 00:27:35;;;;;;;1.27;0.82;;;;;;;11.18;99.00;101657.94;5050995;28;20086;-63
2021/10/07 00:30:06;;;;;;;2.22;1.15;;;;;;;11.04;98.80;101655.53;5050970;28;20478;-65
2021/10/07 00:32:38;;;;;;;1.40;1.30;;;;;;;10.86;99.71;101656.81;5052170;28;20040;-66
2021/10/07 00:35:33;;;;;;;1.92;1.30;;;;;;;11.04;99.94;101663.63;5051032;28;20044;-66
2021/10/07 00:40:42;;;;;;;1.27;1.10;;;;;;;10.86;100.00;101670.28;5051780;28;20537;-65
2021/10/07 00:43:07;;;;;;;1.40;1.10;;;;;;;10.95;100.00;101662.13;5050399;28;20104;-66
2021/10/07 00:45:33;;;;;;;1.75;1.10;;;;;;;11.03;99.84;101674.75;5038158;28;20021;-66
2021/10/07 00:47:58;;;;;;;1.60;1.20;;;;;;;11.05;100.00;101667.13;5051174;28;20033;-66
2021/10/07 00:50:24;;;;;;;2.42;1.17;;;;;;;10.99;99.50;101666.53;5049605;28;20028;-65
2021/10/07 00:52:49;;;;;;;1.27;0.88;;;;;;;10.80;100.00;101683.19;5050628;28;20442;-64
2021/10/07 00:55:15;;;;;;;1.80;1.27;;;;;;;10.71;100.00;101678.97;5047291;28;20048;-66
2021/10/07 00:57:41;;;;;;;1.38;1.08;;;;;;;10.81;100.00;101670.50;5047440;28;20112;-65
2021/10/07 01:00:07;;;;;;;1.70;1.05;;;;;;;10.61;100.00;101677.47;5051150;28;20052;-66
2021/10/07 01:02:32;;;;;;;2.28;1.30;;;;;;;10.66;100.00;101677.28;5051825;28;20041;-65
2021/10/07 01:04:58;;;;;;;2.47;1.00;;;;;;;10.58;100.00;101670.06;5047959;28;20052;-65
2021/10/07 01:07:23;;;;;;;1.67;1.05;;;;;;;10.58;100.00;101677.34;5051226;28;20082;-66
2021/10/07 01:09:49;;;;;;;1.35;1.05;;;;;;;10.63;100.00;101677.16;5050876;28;20033;-66
2021/10/07 01:12:14;;;;;;;1.63;1.20;;;;;;;10.67;99.85;101694.22;5050937;28;20547;-65
2021/10/07 01:14:48;;;;;;;1.75;1.13;;;;;;;10.55;100.00;101694.94;5047561;28;20032;-64
2021/10/07 01:17:15;;;;;;;1.40;1.10;;;;;;;10.54;100.00;101693.38;5051850;28;20048;-66
2021/10/07 01:19:43;;;;;;;1.40;1.20;;;;;;;10.61;100.00;101688.25;5035680;28;20040;-65
2021/10/07 01:22:09;;;;;;;4.22;1.02;;;;;;;10.64;100.00;101690.31;5051196;28;20147;-66
2021/10/07 01:24:35;;;;;;;1.08;0.90;;;;;;;10.55;100.00;101694.94;5047788;28;20036;-65
2021/10/07 01:27:00;;;;;;;1.30;1.00;;;;;;;10.58;100.00;101697.00;5050138;28;20032;-65
2021/10/07 01:29:26;;;;;;;1.58;1.13;;;;;;;10.60;100.00;101689.38;5050390;28;20041;-65
2021/10/07 01:31:51;;;;;;;1.60;1.10;;;;;;;10.62;100.00;101691.75;5048542;28;20043;-65
2021/10/07 01:34:26;;;;;;;2.90;1.42;;;;;;;10.57;100.00;101690.03;5049575;28;20032;-65
2021/10/07 01:36:51;;;;;;;3.00;1.80;;;;;;;10.63;100.00;101691.41;5050268;28;20387;-65
2021/10/07 01:39:18;;;;;;;1.58;0.95;;;;;;;10.66;99.82;101688.06;5048010;28;20036;-64
2021/10/07 01:41:44;;;;;;;1.10;0.95;;;;;;;10.71;99.38;101698.63;5049530;28;20039;-65
2021/10/07 01:44:09;;;;;;;2.20;1.13;;;;;;;10.58;99.56;101696.22;5041955;28;20498;-64
2021/10/07 01:46:35;;;;;;;1.30;0.95;;;;;;;10.51;99.86;101690.56;5045595;28;20039;-66
2021/10/07 01:49:01;;;;;;;1.48;1.20;;;;;;;10.50;99.64;101686.28;5046210;28;20053;-63
2021/10/07 01:51:26;;;;;;;1.60;1.15;;;;;;;10.62;99.72;101697.94;5050425;28;20136;-66
2021/10/07 01:53:52;;;;;;;1.48;1.27;;;;;;;10.60;99.44;101705.53;5047336;28;20083;-65
2021/10/07 01:56:18;;;;;;;1.38;0.95;;;;;;;10.42;99.29;101700.59;5048889;28;20049;-65
2021/10/07 01:58:43;;;;;;;2.28;1.10;;;;;;;10.20;99.09;101696.28;5044917;28;20037;-66
2021/10/07 02:01:09;;;;;;;1.55;0.95;;;;;;;10.20;99.91;101703.59;5049991;28;20037;-65
2021/10/07 02:03:34;;;;;;;1.20;1.00;;;;;;;10.26;99.40;101695.00;5049796;28;20037;-65
2021/10/07 02:06:00;;;;;;;2.15;1.20;;;;;;;10.30;99.48;101704.00;5047875;28;20676;-64
2021/10/07 02:08:25;;;;;;;1.02;0.88;;;;;;;10.13;99.31;101706.78;5049705;28;20032;-64
2021/10/07 02:10:51;;;;;;;1.73;1.10;;;;;;;10.19;99.90;101708.19;5050514;28;20056;-65
2021/10/07 02:13:16;;;;;;;1.50;0.90;;;;;;;10.31;99.07;101712.88;5050248;28;20064;-65
2021/10/07 02:15:42;;;;;;;1.45;1.02;;;;;;;10.15;99.39;101706.47;5049859;28;20490;-64
2021/10/07 02:18:07;;;;;;;1.63;1.10;;;;;;;10.11;99.77;101717.09;5046149;28;20549;-66
2021/10/07 02:20:33;;;;;;;1.52;1.17;;;;;;;9.99;99.59;101722.34;5047896;28;20041;-65
2021/10/07 02:22:58;;;;;;;1.35;0.98;;;;;;;9.94;99.95;101719.84;5050133;28;20725;-64
2021/10/07 02:25:24;;;;;;;1.70;1.20;;;;;;;9.94;100.00;101723.34;5050835;28;20037;-65
2021/10/07 02:27:49;;;;;;;1.38;1.10;;;;;;;9.81;100.00;101715.47;5046158;28;20426;-62
2021/10/07 02:30:16;;;;;;;1.70;1.13;;;;;;;9.93;100.00;101729.81;5048411;28;20482;-65
2021/10/07 02:32:43;;;;;;;1.35;1.08;;;;;;;9.99;100.00;101733.09;5047038;28;20033;-66
2021/10/07 02:35:09;;;;;;;1.85;1.30;;;;;;;10.02;100.00;101733.28;5050149;28;20032;-65
2021/10/07 02:37:34;;;;;;;3.75;0.93;;;;;;;10.04;100.00;101732.94;5049474;28;20028;-64
2021/10/07 02:40:00;;;;;;;2.95;0.93;;;;;;;10.08;100.00;101727.69;5046693;28;20041;-62
2021/10/07 02:42:26;;;;;;;2.97;1.40;;;;;;;10.13;99.91;101728.31;5048369;28;20041;-65
2021/10/07 02:44:52;;;;;;;5.35;1.05;;;;;;;10.11;100.00;101741.31;5051689;28;20068;-65
2021/10/07 02:47:17;;;;;;;1.52;1.10;;;;;;;10.16;100.00;101740.34;5053194;28;20029;-65
2021/10/07 02:49:44;;;;;;;2.65;1.27;;;;;;;10.10;100.00;101742.44;5050042;28;20047;-65
2021/10/07 02:52:09;;;;;;;1.45;1.10;;;;;;;9.99;100.00;101751.94;5053718;28;20025;-64
2021/10/07 02:54:35;;;;;;;1.20;0.85;;;;;;;9.94;100.00;101752.13;5050681;28;20112;-65
2021/10/07 02:57:00;;;;;;;1.77;1.05;;;;;;;10.01;100.00;101763.19;5053588;28;20080;-64
2021/10/07 02:59:26;;;;;;;1.95;1.33;;;;;;;10.04;99.84;101762.53;5043493;28;20124;-65
2021/10/07 03:01:51;;;;;;;2.08;1.25;;;;;;;9.90;100.00;101767.34;5053813;28;20123;-65
2021/10/07 03:04:17;;;;;;;1.30;1.10;;;;;;;9.85;100.00;101771.00;5047730;28;20041;-64
2021/10/07 03:06:42;;;;;;;1.42;1.02;;;;;;;9.87;100.00;101776.06;5053954;28;20075;-65
2021/10/07 03:09:08;;;;;;;1.35;1.10;;;;;;;9.80;100.00;101783.81;5049815;28;20067;-65
2021/10/07 03:11:34;;;;;;;1.58;1.20;;;;;;;9.61;100.00;101772.66;5047827;28;20127;-64
2021/10/07 03:14:00;;;;;;;2.63;0.90;;;;;;;9.64;100.00;101777.41;5053414;28;20082;-64
2021/10/07 03:16:25;;;;;;;1.50;1.00;;;;;;;9.74;100.00;101767.06;5050555;28;20045;-64
2021/10/07 03:18:50;;;;;;;3.45;1.02;;;;;;;9.74;100.00;101774.34;5042092;28;20033;-64
2021/10/07 03:21:16;;;;;;;1.58;1.30;;;;;;;9.76;100.00;101780.19;5049718;28;20037;-65
2021/10/07 03:23:42;;;;;;;2.78;1.20;;;;;;;9.74;100.00;101785.09;5051073;28;20037;-64
2021/10/07 03:26:07;;;;;;;1.30;1.20;;;;;;;9.76;100.00;101788.25;5052142;28;20048;-64
2021/10/07 03:28:33;;;;;;;3.42;1.40;;;;;;;9.83;100.00;101793.97;5040211;28;20048;-65
2021/10/07 03:30:58;;;;;;;2.55;1.17;;;;;;;9.77;100.00;101797.94;5052279;28;20112;-65
2021/10/07 03:33:24;;;;;;;5.30;1.33;;;;;;;9.67;100.00;101800.97;5050502;28;20036;-65
2021/10/07 03:35:50;;;;;;;1.20;1.10;;;;;;;9.75;100.00;101803.63;5052889;28;20029;-65
2021/10/07 03:38:16;;;;;;;2.22;1.20;;;;;;;9.74;100.00;101814.69;5052055;28;20459;-64
2021/10/07 03:40:41;;;;;;;2.38;1.20;;;;;;;9.72;100.00;101808.84;5049860;28;20056;-64
2021/10/07 03:43:06;;;;;;;2.28;1.42;;;;;;;9.68;100.00;101813.28;5052409;28;20090;-64
2021/10/07 03:45:32;;;;;;;1.92;1.30;;;;;;;9.72;100.00;101824.97;5052939;28;20068;-62
2021/10/07 03:47:57;;;;;;;3.67;1.20;;;;;;;9.67;100.00;101815.19;5051501;28;20021;-64
2021/10/07 03:50:23;;;;;;;3.10;1.30;;;;;;;9.65;100.00;101824.69;5050155;28;20028;-62
2021/10/07 03:52:48;;;;;;;1.75;1.30;;;;;;;9.54;100.00;101820.75;5053134;28;20052;-62
2021/10/07 03:55:14;;;;;;;1.77;1.38;;;;;;;9.56;100.00;101826.59;5049679;28;20037;-63
2021/10/07 03:57:40;;;;;;;1.70;1.10;;;;;;;9.57;100.00;101834.34;5050744;28;20029;-63
2021/10/07 04:00:09;;;;;;;2.05;1.35;;;;;;;9.54;100.00;101834.22;5049489;28;20120;-62
2021/10/07 04:02:38;;;;;;;1.63;1.20;;;;;;;9.53;99.73;101824.53;5048609;28;20016;-62
2021/10/07 04:05:04;;;;;;;1.33;1.02;;;;;;;9.41;100.00;101840.53;5051434;28;20036;-62
2021/10/07 04:07:30;;;;;;;2.42;1.45;;;;;;;9.41;100.00;101837.81;5052629;28;20108;-64
2021/10/07 04:09:55;;;;;;;2.65;1.35;;;;;;;9.43;99.98;101839.09;5048156;28;20119;-62
2021/10/07 04:12:21;;;;;;;2.15;1.15;;;;;;;9.49;100.00;101842.41;5052546;28;20052;-64
2021/10/07 04:14:46;;;;;;;2.05;1.20;;;;;;;9.46;100.00;101851.13;5052165;28;20029;-64
2021/10/07 04:17:12;;;;;;;1.90;1.17;;;;;;;9.33;100.00;101855.53;5050226;28;20068;-62
2021/10/07 04:19:37;;;;;;;1.63;1.33;;;;;;;9.28;100.00;101861.09;5049863;28;20409;-62
2021/10/07 04:22:03;;;;;;;3.70;1.33;;;;;;;9.23;100.00;101861.25;5052540;28;20108;-64
2021/10/07 04:24:28;;;;;;;2.15;1.25;;;;;;;9.34;100.00;101867.09;5049026;28;20069;-63
2021/10/07 04:26:54;;;;;;;1.50;1.10;;;;;;;9.37;100.00;101872.63;5052228;28;20017;-64
2021/10/07 04:29:19;;;;;;;1.70;1.33;;;;;;;9.39;100.00;101875.78;5051586;28;20409;-65
2021/10/07 04:31:45;;;;;;;2.47;1.60;;;;;;;9.40;100.00;101877.38;5051977;28;20082;-64
2021/10/07 04:34:11;;;;;;;2.80;1.50;;;;;;;9.25;100.00;101877.84;5048764;28;20067;-65
2021/10/07 04:36:36;;;;;;;2.53;1.77;;;;;;;9.28;100.00;101881.78;5052248;28;20037;-64
2021/10/07 04:39:02;;;;;;;2.38;1.48;;;;;;;9.15;100.00;101886.22;5051581;28;20039;-64
2021/10/07 04:41:28;;;;;;;2.40;1.50;;;;;;;9.10;100.00;101895.22;5051976;28;20100;-65
2021/10/07 04:43:53;;;;;;;1.92;1.20;;;;;;;9.00;100.00;101890.13;5049628;28;20171;-65
2021/10/07 04:46:21;;;;;;;6.95;1.40;;;;;;;8.95;100.00;101892.97;5043700;28;20040;-65
2021/10/07 04:48:47;;;;;;;1.85;1.45;;;;;;;9.02;100.00;101887.13;5050835;28;20029;-65
2021/10/07 04:51:13;;;;;;;3.63;1.30;;;;;;;9.03;100.00;101905.66;5052113;28;20047;-64
2021/10/07 04:53:39;;;;;;;1.73;1.15;;;;;;;9.04;100.00;101904.53;5049599;28;20040;-64
2021/10/07 04:56:04;;;;;;;2.20;1.20;;;;;;;8.94;100.00;101902.13;5051019;28;20113;-65
2021/10/07 04:58:30;;;;;;;2.25;1.10;;;;;;;8.94;100.00;101901.34;5046224;28;20064;-64
2021/10/07 05:00:55;;;;;;;2.25;1.20;;;;;;;8.95;100.00;101917.16;5048130;28;20036;-65
2021/10/07 05:03:21;;;;;;;2.58;1.13;;;;;;;8.88;100.00;101913.34;5051670;28;20040;-65
2021/10/07 05:05:46;;;;;;;1.42;1.17;;;;;;;8.73;100.00;101916.47;5051020;28;20013;-64
2021/10/07 05:08:12;;;;;;;2.33;1.50;;;;;;;8.76;100.00;101922.00;5050327;28;20044;-64
2021/10/07 05:10:38;;;;;;;1.50;1.05;;;;;;;8.72;100.00;101921.03;5048775;28;20490;-65
2021/10/07 05:13:04;;;;;;;3.60;1.50;;;;;;;8.80;100.00;101931.03;5050226;28;20032;-64
2021/10/07 05:15:30;;;;;;;2.15;1.25;;;;;;;8.83;100.00;101937.63;5050918;28;20036;-64
2021/10/07 05:17:55;;;;;;;2.45;1.40;;;;;;;8.73;100.00;101938.72;5048365;28;20033;-65
2021/10/07 05:20:21;;;;;;;1.90;1.40;;;;;;;8.78;100.00;101940.47;5046688;28;20068;-64
2021/10/07 05:22:47;;;;;;;1.35;1.10;;;;;;;8.67;100.00;101942.63;5050476;28;20099;-64
2021/10/07 05:25:12;;;;;;;4.28;1.45;;;;;;;8.56;100.00;101946.69;5051071;28;20024;-64
2021/10/07 05:27:38;;;;;;;3.03;1.40;;;;;;;8.63;100.00;101952.41;5047550;28;20067;-64
2021/10/07 05:30:07;;;;;;;5.43;1.70;;;;;;;8.56;100.00;101953.94;5050819;28;20041;-65
2021/10/07 05:32:32;;;;;;;2.58;1.38;;;;;;;8.56;100.00;101952.06;5047862;28;21960;-64
2021/10/07 05:34:59;;;;;;;1.77;1.08;;;;;;;8.60;100.00;101954.94;5044680;28;20120;-64
2021/10/07 05:37:28;;;;;;;1.45;1.35;;;;;;;8.51;100.00;101972.88;5047696;28;20469;-65
2021/10/07 05:39:54;;;;;;;1.95;1.42;;;;;;;8.51;100.00;101968.31;5048230;28;20032;-65
2021/10/07 05:42:19;;;;;;;4.57;1.58;;;;;;;8.40;100.00;101972.34;5051316;28;20043;-64
2021/10/07 05:44:45;;;;;;;2.75;1.40;;;;;;;8.53;100.00;101979.53;5045130;28;20486;-64
2021/10/07 05:47:11;;;;;;;3.47;1.90;;;;;;;8.70;100.00;101992.25;5051057;28;20028;-64
2021/10/07 05:49:36;;;;;;;2.47;1.40;;;;;;;8.61;100.00;101986.06;5049484;28;20510;-65
2021/10/07 05:52:02;;;;;;;4.00;1.60;;;;;;;8.63;100.00;101990.00;5049583;28;20035;-64
2021/10/07 05:54:28;;;;;;;3.17;1.40;;;;;;;8.65;100.00;101995.09;5050632;28;20048;-64
2021/10/07 05:56:54;;;;;;;3.20;1.77;;;;;;;8.80;100.00;101990.09;5047833;28;20037;-64
2021/10/07 05:59:19;;;;;;;2.47;1.52;;;;;;;8.91;100.00;102001.34;5046966;28;20040;-64
2021/10/07 06:01:45;;;;;;;2.17;1.80;;;;;;;8.96;100.00;101998.53;5040301;28;20095;-65
2021/10/07 06:04:10;;;;;;;3.28;2.13;;;;;;;8.96;100.00;102007.38;5044532;28;20501;-65
2021/10/07 06:06:36;;;;;;;3.53;1.60;;;;;;;8.95;100.00;102003.13;5042564;28;20029;-64
2021/10/07 06:09:02;;;;;;;2.47;1.55;;;;;;;8.79;100.00;102004.63;5038557;28;20174;-64
2021/10/07 06:11:27;;;;;;;2.78;1.58;;;;;;;8.71;100.00;102012.66;5037324;28;20080;-65
2021/10/07 06:13:53;;;;;;;2.03;1.58;;;;;;;8.87;100.00;101998.50;5043002;28;20528;-65
2021/10/07 06:16:19;;;;;;;3.42;1.75;;;;;;;8.87;100.00;102011.13;5037255;28;20037;-65
2021/10/07 06:18:47;;;;;;;2.63;1.73;;;;;;;8.84;100.00;102017.94;5034069;28;20034;-65
2021/10/07 06:21:12;;;;;;;3.58;2.30;;;;;;;8.93;100.00;102018.75;5035988;28;20041;-64
2021/10/07 06:23:41;;;;;;;2.88;1.52;;;;;;;8.94;100.00;102016.88;5032047;28;20398;-65
2021/10/07 06:26:08;;;;;;;4.25;2.20;;;;;;;8.95;100.00;102019.25;5033401;28;20127;-65
2021/10/07 06:28:34;;;;;;;2.03;1.70;;;;;;;9.00;100.00;102019.09;5034366;28;20120;-64
2021/10/07 06:30:59;;;;;;;2.13;1.60;;;;;;;9.09;100.00;102032.56;5047918;28;20054;-65
2021/10/07 06:33:25;;;;;;;1.67;1.42;;;;;;;9.11;100.00;102027.69;5045920;28;20033;-65
2021/10/07 06:35:52;;;;;;;2.25;1.42;;;;;;;9.13;100.00;102035.44;5037872;28;20037;-65
2021/10/07 06:38:18;;;;;;;2.72;1.80;;;;;;;9.22;100.00;102038.94;5043350;28;20033;-64
2021/10/07 06:40:44;;;;;;;2.92;1.65;;;;;;;9.24;100.00;102044.78;5044656;28;20037;-65
2021/10/07 06:43:10;;;;;;;2.55;1.50;;;;;;;9.24;100.00;102050.16;5048138;28;20036;-64
2021/10/07 06:45:36;;;;;;;2.90;1.77;;;;;;;9.22;100.00;102055.06;5042911;28;20035;-64
2021/10/07 06:48:01;;;;;;;3.80;1.60;;;;;;;9.24;100.00;102052.84;5038521;28;20056;-64
2021/10/07 06:50:27;;;;;;;2.35;1.48;;;;;;;9.31;100.00;102061.28;5046591;28;20035;-64
2021/10/07 06:52:52;;;;;;;2.97;2.00;;;;;;;9.31;100.00;102058.59;5046054;28;20477;-64
2021/10/07 06:55:18;;;;;;;3.25;1.77;;;;;;;9.29;100.00;102068.84;5039125;28;20041;-64
2021/10/07 06:57:43;;;;;;;2.53;1.60;;;;;;;9.34;100.00;102066.00;5041779;28;20025;-63
2021/10/07 07:00:10;;;;;;;4.88;1.63;;;;;;;9.42;100.00;102076.00;5039004;28;20036;-64
2021/10/07 07:02:37;;;;;;;2.47;1.65;;;;;;;9.51;100.00;102076.81;5044065;28;20844;-64
2021/10/07 07:05:05;;;;;;;2.80;1.73;;;;;;;9.54;100.00;102079.66;5035163;28;20116;-63
2021/10/07 07:07:31;;;;;;;2.08;1.58;;;;;;;9.57;100.00;102087.13;5042013;28;20021;-63
2021/10/07 07:09:57;;;;;;;4.05;1.58;;;;;;;9.61;100.00;102088.09;5042208;28;20115;-64
2021/10/07 07:12:22;;;;;;;2.45;1.75;;;;;;;9.66;100.00;102092.50;5045873;28;20115;-65
2021/10/07 07:14:48;;;;;;;2.35;1.70;;;;;;;9.74;100.00;102094.44;5043486;28;20669;-64
2021/10/07 07:17:15;;;;;;;2.38;1.65;;;;;;;9.86;100.00;102102.69;5047299;28;20047;-65
2021/10/07 07:19:41;;;;;;;2.03;1.30;;;;;;;9.89;100.00;102104.78;5037243;28;20523;-65
2021/10/07 07:22:07;;;;;;;2.58;1.60;;;;;;;10.02;100.00;102101.94;5046044;28;20037;-64
2021/10/07 07:24:33;;;;;;;3.28;1.85;;;;;;;10.13;100.00;102107.03;5040281;28;20528;-65
2021/10/07 07:26:58;;;;;;;3.00;1.60;;;;;;;10.29;100.00;102122.44;5040736;28;20025;-64
2021/10/07 07:29:23;;;;;;;2.03;1.60;;;;;;;10.40;100.00;102121.00;5037443;28;21259;-64
2021/10/07 07:31:50;;;;;;;2.95;1.73;;;;;;;10.57;100.00;102117.50;5049653;28;20021;-64
2021/10/07 07:34:16;;;;;;;3.20;1.67;;;;;;;10.76;100.00;102121.44;5042655;28;20390;-64
2021/10/07 07:36:41;;;;;;;3.20;1.92;;;;;;;11.01;100.00;102122.53;5039688;28;20033;-65
2021/10/07 07:39:07;;;;;;;3.25;1.70;;;;;;;11.21;100.00;102123.72;5043189;28;20451;-64
2021/10/07 07:41:32;;;;;;;3.03;1.83;;;;;;;11.41;100.00;102129.22;5043523;28;20055;-65
2021/10/07 07:43:58;;;;;;;4.03;1.88;;;;;;;11.65;100.00;102121.34;5040531;28;20037;-65
2021/10/07 07:46:23;;;;;;;7.68;2.08;;;;;;;11.88;100.00;102126.47;5049066;28;20075;-64
2021/10/07 07:48:49;;;;;;;7.97;2.00;;;;;;;12.06;100.00;102128.72;5040578;28;20044;-65
2021/10/07 07:51:14;;;;;;;3.28;1.80;;;;;;;12.31;100.00;102133.13;5042054;28;20041;-65
2021/10/07 07:53:40;;;;;;;4.72;2.10;;;;;;;12.50;100.00;102130.75;5044325;28;20044;-64
2021/10/07 07:56:06;;;;;;;4.75;2.05;;;;;;;12.70;100.00;102137.25;5047148;28;20037;-64
2021/10/07 07:58:31;;;;;;;3.38;2.17;;;;;;;12.85;100.00;102133.97;5045974;28;20039;-65
2021/10/07 08:00:57;;;;;;;5.40;2.40;;;;;;;12.92;100.00;102130.69;5040635;28;20029;-64
2021/10/07 08:03:24;;;;;;;5.10;1.92;;;;;;;12.87;100.00;102141.72;5040254;28;20055;-64
2021/10/07 08:05:50;;;;;;;4.40;1.90;;;;;;;13.06;100.00;102142.84;5045541;28;20138;-65
2021/10/07 08:08:15;;;;;;;2.55;1.77;;;;;;;13.09;100.00;102139.44;5044507;28;20157;-64
2021/10/07 08:10:41;;;;;;;2.67;1.50;;;;;;;13.28;100.00;102136.22;5046472;28;20607;-64
2021/10/07 08:13:06;;;;;;;3.45;1.90;;;;;;;13.35;100.00;102137.25;5044200;28;20032;-65
2021/10/07 08:15:32;;;;;;;3.35;1.58;;;;;;;13.53;100.00;102133.19;5041010;28;20111;-65
2021/10/07 08:17:57;;;;;;;3.55;1.50;;;;;;;13.70;100.00;102148.44;5037539;28;20120;-65
2021/10/07 08:20:23;;;;;;;4.65;1.70;;;;;;;13.80;100.00;102141.78;5046939;28;20433;-65
2021/10/07 08:22:49;;;;;;;2.78;1.60;;;;;;;13.93;100.00;102140.63;5040988;28;20125;-65
2021/10/07 08:25:17;;;;;;;4.28;1.52;;;;;;;14.05;99.35;102141.41;5040791;28;20048;-65
2021/10/07 08:27:43;;;;;;;2.63;1.63;;;;;;;14.15;98.66;102140.94;5045657;28;20090;-64
2021/10/07 08:30:10;;;;;;;3.17;1.35;;;;;;;14.24;96.77;102144.31;5042599;28;20049;-64
2021/10/07 08:32:37;;;;;;;2.08;1.50;;;;;;;14.31;97.02;102147.25;5048854;28;20055;-65
2021/10/07 08:35:05;;;;;;;5.40;1.52;;;;;;;14.34;96.32;102149.28;5044025;28;20193;-64
2021/10/07 08:37:32;;;;;;;1.85;1.52;;;;;;;14.40;96.26;102156.03;5047076;28;20112;-65
2021/10/07 08:39:57;;;;;;;1.70;1.40;;;;;;;14.55;95.25;102157.25;5043141;28;20082;-65
2021/10/07 08:42:23;;;;;;;1.77;1.00;;;;;;;14.65;95.34;102155.97;5048217;28;20502;-64
2021/10/07 08:44:48;;;;;;;4.03;1.30;;;;;;;14.84;93.25;102167.75;5040307;28;20437;-66
2021/10/07 08:47:16;;;;;;;4.32;1.40;;;;;;;14.90;93.98;102165.59;5043161;28;20021;-65
2021/10/07 08:49:43;;;;;;;1.30;1.13;;;;;;;15.12;93.45;102167.72;5038337;28;20449;-65
2021/10/07 08:52:09;;;;;;;2.95;1.00;;;;;;;15.36;92.49;102164.88;5043658;28;20390;-66
2021/10/07 08:54:36;;;;;;;2.45;1.38;;;;;;;15.76;91.31;102168.22;5045236;28;20033;-65
2021/10/07 08:57:03;;;;;;;1.70;1.20;;;;;;;15.89;90.45;102175.09;5041195;28;20553;-65
2021/10/07 08:59:29;;;;;;;1.38;0.95;;;;;;;16.06;89.43;102173.97;5042278;28;20041;-65
2021/10/07 09:01:57;;;;;;;3.60;1.00;;;;;;;16.21;88.36;102165.75;5040296;28;20036;-65
2021/10/07 09:04:26;;;;;;;2.67;1.23;;;;;;;16.39;86.57;102168.06;5041563;28;20120;-65
2021/10/07 09:06:58;;;;;;;1.33;0.98;;;;;;;16.49;86.85;102167.53;5042527;28;20425;-66
2021/10/07 09:09:26;;;;;;;2.92;1.30;;;;;;;16.58;86.18;102166.19;5037569;28;20037;-66
2021/10/07 09:11:54;;;;;;;2.40;1.15;;;;;;;16.69;84.52;102167.19;5048717;28;20025;-65
2021/10/07 09:14:27;;;;;;;1.52;1.10;;;;;;;16.86;83.15;102166.72;5048946;28;20420;-65
2021/10/07 09:16:54;;;;;;;1.70;0.90;;;;;;;16.94;83.02;102167.66;5037158;28;20095;-65
2021/10/07 09:19:23;;;;;;;1.67;1.00;;;;;;;17.17;82.71;102174.72;5046092;28;20037;-65
2021/10/07 09:21:52;;;;;;;1.35;0.80;;;;;;;17.31;83.82;102171.44;5039509;28;20037;-65
2021/10/07 09:24:33;;;;;;;2.10;1.00;;;;;;;17.52;83.40;102165.59;5039943;28;20045;-65
2021/10/07 09:27:03;;;;;;;1.55;0.95;;;;;;;17.57;81.10;102177.00;5056539;28;20040;-66
2021/10/07 09:29:38;;;;;;;1.23;0.90;;;;;;;17.49;80.28;102166.34;5036590;28;20508;-65
2021/10/07 09:32:05;;;;;;;1.13;0.75;;;;;;;17.58;80.21;102172.31;5040157;28;20044;-66
2021/10/07 09:34:45;;;;;;;2.78;0.98;;;;;;;17.47;78.98;102177.56;5042739;28;20112;-65
2021/10/07 09:37:23;;;;;;;1.15;0.75;;;;;;;17.45;79.31;102177.16;5033803;28;20043;-65
2021/10/07 09:39:55;;;;;;;1.58;1.00;;;;;;;17.43;78.42;102195.00;5038450;28;20049;-65
2021/10/07 09:42:24;;;;;;;2.65;1.20;;;;;;;17.40;78.62;102188.31;5045909;28;20078;-66
2021/10/07 09:45:06;;;;;;;2.53;0.90;;;;;;;17.53;79.00;102186.25;5041520;28;20048;-65
2021/10/07 09:47:35;;;;;;;1.40;1.00;;;;;;;17.51;79.31;102197.53;5046478;28;20413;-65
2021/10/07 09:50:15;;;;;;;2.60;0.90;;;;;;;17.53;77.79;102183.53;5043345;28;20048;-66
2021/10/07 09:52:43;;;;;;;2.53;1.00;;;;;;;17.54;76.42;102185.88;5044036;28;20048;-65
2021/10/07 09:55:16;;;;;;;1.08;0.57;;;;;;;17.59;77.09;102188.31;5037889;28;20040;-65
2021/10/07 09:57:57;;;;;;;1.95;0.80;;;;;;;17.61;77.90;102196.13;5047361;28;20029;-65
2021/10/07 10:00:26;;;;;;;0.88;0.55;;;;;;;17.74;78.40;102195.56;5042293;28;20033;-65
2021/10/07 10:02:57;;;;;;;1.50;0.98;;;;;;;17.70;74.68;102192.00;5040404;28;20033;-66
2021/10/07 10:05:23;;;;;;;1.65;0.85;;;;;;;17.61;76.32;102194.19;5039173;28;20033;-65
2021/10/07 10:07:49;;;;;;;0.75;0.40;;;;;;;17.68;76.21;102198.94;5040568;28;20029;-65
2021/10/07 10:10:16;;;;;;;1.40;0.75;;;;;;;17.77;75.99;102202.19;5035740;28;20036;-65
2021/10/07 10:12:42;;;;;;;1.38;0.90;;;;;;;17.81;75.81;102194.88;5047939;28;20563;-66
2021/10/07 10:15:09;;;;;;;0.73;0.70;;;;;;;17.86;75.31;102195.38;5035709;28;20033;-65
2021/10/07 10:17:35;;;;;;;0.77;0.68;;;;;;;17.83;74.23;102196.09;5034688;28;20064;-65
2021/10/07 10:20:34;;;;;;;2.33;1.05;;;;;;;17.87;73.31;102199.66;5035313;28;20398;-66
2021/10/07 10:23:05;;;;;;;1.55;0.63;;;;;;;17.91;74.22;102197.78;5009780;28;20128;-66
2021/10/07 10:25:49;;;;;;;1.23;1.10;;;;;;;17.89;73.88;102193.84;5036744;28;20532;-66
2021/10/07 10:28:15;;;;;;;0.88;0.70;;;;;;;17.99;74.48;102202.19;5040655;28;20589;-65
2021/10/07 10:30:46;;;;;;;2.67;0.68;;;;;;;18.04;74.69;102203.78;5042134;28;20040;-66
2021/10/07 10:33:30;;;;;;;2.58;0.80;;;;;;;18.10;73.70;102198.84;5043099;28;20047;-66
2021/10/07 10:35:56;;;;;;;2.53;0.98;;;;;;;18.13;73.59;102201.63;5042253;28;20044;-66
2021/10/07 10:38:22;;;;;;;1.40;0.90;;;;;;;18.16;73.41;102206.31;5047861;28;20045;-66
2021/10/07 10:40:47;;;;;;;1.58;0.77;;;;;;;18.17;74.08;102198.94;5038238;28;20032;-66
2021/10/07 10:43:23;;;;;;;1.30;0.80;;;;;;;18.37;74.26;102200.41;5038302;28;20068;-66
2021/10/07 10:46:08;;;;;;;1.35;0.75;;;;;;;18.44;73.99;102201.31;5031950;28;20044;-66
2021/10/07 10:48:44;;;;;;;1.20;0.80;;;;;;;18.42;72.32;102200.06;5040943;28;20052;-65
2021/10/07 10:51:14;;;;;;;1.73;1.00;;;;;;;18.41;72.04;102201.19;5039290;28;20115;-66
2021/10/07 10:54:02;;;;;;;2.58;1.05;;;;;;;18.39;72.96;102203.53;5037455;28;20044;-65
2021/10/07 10:56:32;;;;;;;1.15;0.45;;;;;;;18.48;72.91;102199.41;5037050;28;20048;-65
2021/10/07 10:59:19;;;;;;;1.40;0.60;;;;;;;18.55;70.68;102195.97;5037280;28;20491;-65
2021/10/07 11:01:53;;;;;;;2.25;0.52;;;;;;;18.62;70.17;102202.28;5049027;28;20076;-66
2021/10/07 11:04:52;;;;;;;1.58;0.57;;;;;;;18.68;71.07;102214.47;5032526;28;20052;-66
2021/10/07 11:07:33;;;;;;;0.90;0.50;;;;;;;18.55;67.26;102212.34;5044574;28;20029;-66
2021/10/07 11:10:29;;;;;;;0.98;0.40;;;;;;;18.49;66.64;102205.63;5047881;28;20029;-66
2021/10/07 11:12:58;;;;;;;0.82;0.40;;;;;;;18.58;67.77;102211.63;5046482;28;20087;-66
2021/10/07 11:15:26;;;;;;;1.00;0.50;;;;;;;18.71;68.66;102210.22;5050013;28;20049;-66
2021/10/07 11:17:52;;;;;;;2.25;0.32;;;;;;;18.81;68.02;102215.03;5040240;28;20029;-66
2021/10/07 11:20:33;;;;;;;1.58;0.40;;;;;;;18.80;67.72;102224.34;5033050;28;20065;-66
2021/10/07 11:23:00;;;;;;;0.68;0.38;;;;;;;18.74;67.65;102214.91;5047185;28;20063;-66
2021/10/07 11:25:26;;;;;;;0.45;0.40;;;;;;;18.85;67.15;102216.63;5039764;28;20401;-66
2021/10/07 11:27:52;;;;;;;2.35;0.50;;;;;;;18.92;65.72;102216.72;5048511;28;21019;-66